createdAt,value
2023-12-20T00:01:24.810Z,100101.16
2023-12-20T00:03:52.623Z,100088.34
2023-12-20T00:06:20.947Z,100081.00
2023-12-20T00:08:50.057Z,100082.06
2023-12-20T00:11:18.143Z,100070.66
2023-12-20T00:13:48.540Z,100069.53
2023-12-20T00:16:18.319Z,100078.06
2023-12-20T00:18:46.087Z,100073.91
2023-12-20T00:21:14.498Z,100070.09
2023-12-20T00:23:42.239Z,100066.91
2023-12-20T00:26:11.809Z,100065.19
2023-12-20T00:28:39.523Z,100068.81
2023-12-20T00:31:07.692Z,100066.28
2023-12-20T00:33:35.573Z,100068.22
2023-12-20T00:36:03.349Z,100059.19
2023-12-20T00:38:31.542Z,100055.69
2023-12-20T00:40:59.294Z,100045.59
2023-12-20T00:43:29.153Z,100048.06
2023-12-20T00:45:57.200Z,100051.31
2023-12-20T00:48:25.389Z,100055.69
2023-12-20T00:50:53.101Z,100046.13
2023-12-20T00:53:21.260Z,100036.31
2023-12-20T00:55:49.158Z,100047.75
2023-12-20T00:58:17.078Z,100039.88
2023-12-20T01:00:47.073Z,100040.69
2023-12-20T01:03:15.678Z,100039.03
2023-12-20T01:05:43.847Z,100043.69
2023-12-20T01:08:11.553Z,100040.38
2023-12-20T01:10:39.583Z,100053.22
2023-12-20T01:13:07.325Z,100051.88
2023-12-20T01:15:35.437Z,100045.34
2023-12-20T01:18:04.871Z,100050.03
2023-12-20T01:20:33.256Z,100046.44
2023-12-20T01:23:01.225Z,100050.03
2023-12-20T01:25:29.164Z,100057.03
2023-12-20T01:27:57.305Z,100047.84
2023-12-20T01:30:25.577Z,100047.84
2023-12-20T01:32:53.771Z,100044.25
2023-12-20T01:35:22.750Z,100051.13
2023-12-20T01:37:50.819Z,100047.00
2023-12-20T01:40:18.791Z,100037.50
2023-12-20T01:42:47.164Z,100039.69
2023-12-20T01:45:15.046Z,100036.41
2023-12-20T01:47:43.054Z,100041.56
2023-12-20T01:50:11.560Z,100037.19
2023-12-20T01:52:40.843Z,100035.03
2023-12-20T01:55:14.765Z,100023.59
2023-12-20T01:57:43.989Z,100033.59
2023-12-20T02:00:15.809Z,100025.97
2023-12-20T02:02:43.738Z,100024.13
2023-12-20T02:05:12.862Z,100018.38
2023-12-20T02:07:42.138Z,100021.34
2023-12-20T02:10:10.626Z,100024.06
2023-12-20T02:12:38.866Z,100009.63
2023-12-20T02:15:07.559Z,100002.56
2023-12-20T02:17:36.602Z,100008.56
2023-12-20T02:20:04.821Z,100020.81
2023-12-20T02:22:34.055Z,100025.19
2023-12-20T02:25:02.100Z,100039.94
2023-12-20T02:27:30.902Z,100057.31
2023-12-20T02:29:58.938Z,100054.56
2023-12-20T02:32:28.217Z,100058.09
2023-12-20T02:34:56.915Z,100056.94
2023-12-20T02:37:24.806Z,100061.56
2023-12-20T02:39:54.228Z,100069.44
2023-12-20T02:42:21.953Z,100075.31
2023-12-20T02:44:50.006Z,100048.97
2023-12-20T02:47:17.704Z,100050.91
2023-12-20T02:49:45.602Z,100050.66
2023-12-20T02:52:13.982Z,100044.13
2023-12-20T02:54:41.720Z,100049.84
2023-12-20T02:57:11.191Z,100045.22
2023-12-20T02:59:38.881Z,100035.69
2023-12-20T03:02:06.951Z,100033.75
2023-12-20T03:04:34.858Z,100021.25
2023-12-20T03:07:03.053Z,100016.31
2023-12-20T03:09:35.726Z,100023.97
2023-12-20T03:12:11.675Z,100015.84
2023-12-20T03:14:39.357Z,100024.84
2023-12-20T03:17:06.983Z,100043.09
2023-12-20T03:19:35.044Z,100037.38
2023-12-20T03:22:03.027Z,100052.34
2023-12-20T03:24:31.066Z,100042.00
2023-12-20T03:26:58.758Z,100046.88
2023-12-20T03:29:28.127Z,100045.50
2023-12-20T03:31:56.050Z,100045.50
2023-12-20T03:34:23.989Z,100041.97
2023-12-20T03:36:51.772Z,100044.72
2023-12-20T03:39:19.887Z,100052.56
2023-12-20T03:41:47.561Z,100060.50
2023-12-20T03:44:15.765Z,100073.81
2023-12-20T03:46:46.694Z,100063.19
2023-12-20T03:49:14.394Z,100055.81
2023-12-20T03:51:43.488Z,100057.47
2023-12-20T03:54:11.265Z,100070.25
2023-12-20T03:56:39.315Z,100070.50
2023-12-20T03:59:07.050Z,100070.47
2023-12-20T04:01:35.192Z,100067.47
2023-12-20T04:04:04.747Z,100061.78
2023-12-20T04:06:33.178Z,100057.44
2023-12-20T04:09:00.962Z,100057.97
2023-12-20T04:11:28.660Z,100062.88
2023-12-20T04:13:56.586Z,100063.19
2023-12-20T04:16:24.380Z,100074.00
2023-12-20T04:18:52.566Z,100061.78
2023-12-20T04:21:21.680Z,100052.78
2023-12-20T04:23:49.782Z,100053.59
2023-12-20T04:26:17.511Z,100065.28
2023-12-20T04:28:45.605Z,100054.38
2023-12-20T04:31:13.503Z,100055.50
2023-12-20T04:33:41.731Z,100062.88
2023-12-20T04:36:10.422Z,100068.00
2023-12-20T04:38:39.765Z,100075.31
2023-12-20T04:41:07.484Z,100079.94
2023-12-20T04:43:35.742Z,100074.22
2023-12-20T04:46:03.491Z,100075.84
2023-12-20T04:48:31.271Z,100086.19
2023-12-20T04:50:59.181Z,100079.88
2023-12-20T04:53:27.435Z,100069.28
2023-12-20T04:55:56.449Z,100058.66
2023-12-20T04:58:24.212Z,100073.34
2023-12-20T05:00:52.366Z,100071.97
2023-12-20T05:03:20.065Z,100083.13
2023-12-20T05:05:48.212Z,100095.66
2023-12-20T05:08:16.522Z,100097.00
2023-12-20T05:10:44.638Z,100097.75
2023-12-20T05:13:13.716Z,100102.94
2023-12-20T05:15:41.832Z,100102.16
2023-12-20T05:18:09.683Z,100109.56
2023-12-20T05:20:37.622Z,100123.72
2023-12-20T05:23:06.072Z,100111.41
2023-12-20T05:25:33.964Z,100112.50
2023-12-20T05:28:02.152Z,100122.06
2023-12-20T05:30:31.235Z,100123.69
2023-12-20T05:32:59.399Z,100125.22
2023-12-20T05:35:27.530Z,100129.19
2023-12-20T05:37:55.659Z,100133.13
2023-12-20T05:40:23.538Z,100133.72
2023-12-20T05:42:51.651Z,100126.88
2023-12-20T05:45:19.413Z,100128.44
2023-12-20T05:47:49.190Z,100131.50
2023-12-20T05:50:17.436Z,100129.75
2023-12-20T05:52:45.122Z,100128.97
2023-12-20T05:55:13.429Z,100131.13
2023-12-20T05:57:41.207Z,100130.22
2023-12-20T06:00:10.896Z,100127.84
2023-12-20T06:02:38.756Z,100128.91
2023-12-20T06:05:09.195Z,100131.56
2023-12-20T06:07:36.879Z,100131.00
2023-12-20T06:10:05.431Z,100134.00
2023-12-20T06:12:34.481Z,100139.44
2023-12-20T06:15:02.634Z,100134.78
2023-12-20T06:17:31.705Z,100120.66
2023-12-20T06:19:59.863Z,100117.34
2023-12-20T06:22:29.491Z,100129.56
2023-12-20T06:24:57.249Z,100115.94
2023-12-20T06:27:25.443Z,100104.50
2023-12-20T06:29:53.149Z,100116.78
2023-12-20T06:32:21.275Z,100106.41
2023-12-20T06:34:49.142Z,100112.41
2023-12-20T06:37:17.668Z,100128.97
2023-12-20T06:39:47.545Z,100127.84
2023-12-20T06:42:15.525Z,100121.66
2023-12-20T06:44:43.218Z,100128.38
2023-12-20T06:47:11.340Z,100120.78
2023-12-20T06:49:39.081Z,100133.75
2023-12-20T06:52:07.558Z,100117.22
2023-12-20T06:54:35.613Z,100128.06
2023-12-20T06:57:05.683Z,100116.63
2023-12-20T06:59:33.747Z,100115.03
2023-12-20T07:02:01.528Z,100109.88
2023-12-20T07:04:29.619Z,100109.53
2023-12-20T07:06:58.716Z,100113.69
2023-12-20T07:09:27.238Z,100115.53
2023-12-20T07:11:55.043Z,100107.94
2023-12-20T07:14:24.466Z,100108.16
2023-12-20T07:16:52.176Z,100107.66
2023-12-20T07:19:19.952Z,100109.22
2023-12-20T07:21:48.295Z,100109.53
2023-12-20T07:24:16.016Z,100100.06
2023-12-20T07:26:44.384Z,100118.78
2023-12-20T07:29:12.071Z,100106.78
2023-12-20T07:31:41.471Z,100108.16
2023-12-20T07:34:09.313Z,100104.44
2023-12-20T07:36:37.155Z,100104.09
2023-12-20T07:39:05.470Z,100102.47
2023-12-20T07:41:33.475Z,100103.31
2023-12-20T07:44:01.147Z,100091.63
2023-12-20T07:46:28.986Z,100098.16
2023-12-20T07:48:58.571Z,100091.69
2023-12-20T07:51:26.734Z,100089.47
2023-12-20T07:53:54.707Z,100099.22
2023-12-20T07:56:22.581Z,100093.78
2023-12-20T07:58:53.070Z,100094.31
2023-12-20T08:01:23.186Z,100092.75
2023-12-20T08:03:52.867Z,100103.97
2023-12-20T08:06:23.725Z,100109.38
2023-12-20T08:08:58.312Z,100111.34
2023-12-20T08:11:31.310Z,100115.38
2023-12-20T08:13:59.336Z,100117.28
2023-12-20T08:16:27.388Z,100119.19
2023-12-20T08:18:55.179Z,100113.22
2023-12-20T08:21:24.831Z,100120.31
2023-12-20T08:23:51.538Z,100122.19
2023-12-20T08:26:22.422Z,100120.84
2023-12-20T08:28:51.119Z,100115.69
2023-12-20T08:31:19.980Z,100119.19
2023-12-20T08:33:48.844Z,100115.13
2023-12-20T08:36:18.926Z,100100.16
2023-12-20T08:38:48.346Z,100109.94
2023-12-20T08:41:16.202Z,100108.59
2023-12-20T08:43:44.269Z,100106.47
2023-12-20T08:46:12.807Z,100107.63
2023-12-20T08:48:41.002Z,100101.91
2023-12-20T08:51:09.886Z,100095.88
2023-12-20T08:53:38.008Z,100106.28
2023-12-20T08:56:07.874Z,100097.00
2023-12-20T08:58:37.362Z,100105.72
2023-12-20T09:01:05.768Z,100107.06
2023-12-20T09:03:34.233Z,100098.66
2023-12-20T09:06:02.037Z,100093.03
2023-12-20T09:08:30.273Z,100096.31
2023-12-20T09:10:58.018Z,100101.47
2023-12-20T09:13:29.802Z,100099.06
2023-12-20T09:15:57.992Z,100092.03
2023-12-20T09:18:26.982Z,100125.75
2023-12-20T09:20:54.818Z,100098.25
2023-12-20T09:23:22.599Z,100094.72
2023-12-20T09:25:50.677Z,100083.41
2023-12-20T09:28:18.456Z,100091.84
2023-12-20T09:30:49.199Z,100107.91
2023-12-20T09:33:17.336Z,100104.59
2023-12-20T09:35:45.697Z,100096.16
2023-12-20T09:38:15.074Z,100085.03
2023-12-20T09:40:44.504Z,100097.25
2023-12-20T09:43:15.843Z,100100.22
2023-12-20T09:45:45.353Z,100083.59
2023-12-20T09:48:15.660Z,100072.69
2023-12-20T09:50:48.477Z,100067.25
2023-12-20T09:53:21.560Z,100074.09
2023-12-20T09:55:50.804Z,100077.31
2023-12-20T09:58:18.468Z,100066.75
2023-12-20T10:00:46.296Z,100067.56
2023-12-20T10:03:17.422Z,100066.44
2023-12-20T10:05:46.885Z,100066.72
2023-12-20T10:08:15.021Z,100057.72
2023-12-20T10:10:48.099Z,100059.38
2023-12-20T10:13:17.880Z,100047.72
2023-12-20T10:15:45.627Z,100048.84
2023-12-20T10:18:15.793Z,100033.88
2023-12-20T10:20:44.807Z,100034.69
2023-12-20T10:23:13.824Z,100022.44
2023-12-20T10:25:42.691Z,100021.94
2023-12-20T10:28:15.783Z,100025.50
2023-12-20T10:30:44.404Z,100030.09
2023-12-20T10:33:13.416Z,100030.41
2023-12-20T10:35:45.275Z,100024.13
2023-12-20T10:38:17.426Z,100029.88
2023-12-20T10:40:47.730Z,100044.28
2023-12-20T10:43:15.691Z,100027.41
2023-12-20T10:45:44.664Z,100016.25
2023-12-20T10:48:13.685Z,100017.13
2023-12-20T10:50:43.455Z,100016.59
2023-12-20T10:53:11.454Z,99997.00
2023-12-20T10:55:39.481Z,99994.28
2023-12-20T10:58:09.961Z,100004.06
2023-12-20T11:00:41.391Z,100004.63
2023-12-20T11:03:11.475Z,99995.38
2023-12-20T11:05:49.695Z,100003.28
2023-12-20T11:08:23.767Z,99996.44
2023-12-20T11:10:58.892Z,99991.25
2023-12-20T11:13:33.537Z,99988.53
2023-12-20T11:16:02.035Z,99981.22
2023-12-20T11:18:32.864Z,99985.03
2023-12-20T11:21:06.624Z,99981.53
2023-12-20T11:23:35.580Z,99978.50
2023-12-20T11:26:05.132Z,99958.38
2023-12-20T11:28:32.945Z,99949.94
2023-12-20T11:31:03.505Z,99946.91
2023-12-20T11:33:33.146Z,99934.41
2023-12-20T11:36:02.172Z,99931.97
2023-12-20T11:38:39.124Z,99938.22
2023-12-20T11:41:11.556Z,99934.94
2023-12-20T11:43:40.764Z,99907.41
2023-12-20T11:46:10.943Z,99903.66
2023-12-20T11:48:41.356Z,99882.13
2023-12-20T11:51:13.056Z,99875.53
2023-12-20T11:53:43.418Z,99881.56
2023-12-20T11:56:12.579Z,99896.50
2023-12-20T11:58:40.801Z,99885.63
2023-12-20T12:01:10.055Z,99883.72
2023-12-20T12:03:38.556Z,99879.91
2023-12-20T12:06:07.046Z,99867.38
2023-12-20T12:08:34.806Z,99859.50
2023-12-20T12:11:05.356Z,99848.38
2023-12-20T12:13:33.082Z,99832.03
2023-12-20T12:16:01.775Z,99845.34
2023-12-20T12:18:29.772Z,99834.75
2023-12-20T12:21:02.989Z,99818.13
2023-12-20T12:23:30.769Z,99817.34
2023-12-20T12:25:58.841Z,99814.63
2023-12-20T12:28:30.453Z,99811.06
2023-12-20T12:31:00.034Z,99799.38
2023-12-20T12:33:28.289Z,99806.44
2023-12-20T12:35:57.401Z,99795.03
2023-12-20T12:38:26.201Z,99790.91
2023-12-20T12:40:55.018Z,99778.66
2023-12-20T12:43:24.218Z,99769.13
2023-12-20T12:45:54.197Z,99768.88
2023-12-20T12:48:22.136Z,99756.06
2023-12-20T12:50:53.176Z,99756.59
2023-12-20T12:53:20.879Z,99726.69
2023-12-20T12:55:48.595Z,99708.97
2023-12-20T12:58:16.640Z,99705.72
2023-12-20T13:00:44.364Z,99703.28
2023-12-20T13:03:13.772Z,99711.97
2023-12-20T13:05:43.568Z,99694.00
2023-12-20T13:08:13.637Z,99686.13
2023-12-20T13:10:41.516Z,99672.53
2023-12-20T13:13:09.616Z,99687.47
2023-12-20T13:15:37.738Z,99681.22
2023-12-20T13:18:07.781Z,99680.69
2023-12-20T13:20:36.998Z,99679.06
2023-12-20T13:23:04.999Z,99698.63
2023-12-20T13:25:32.731Z,99704.63
2023-12-20T13:28:00.726Z,99710.31
2023-12-20T13:30:28.924Z,99710.59
2023-12-20T13:32:56.734Z,99711.41
2023-12-20T13:35:24.868Z,99763.31
2023-12-20T13:37:53.994Z,99788.00
2023-12-20T13:40:22.226Z,99777.91
2023-12-20T13:42:50.406Z,99770.28
2023-12-20T13:45:18.559Z,99764.84
2023-12-20T13:47:46.630Z,99750.44
2023-12-20T13:50:14.794Z,99769.19
2023-12-20T13:52:43.063Z,99784.13
2023-12-20T13:55:12.260Z,99790.63
2023-12-20T13:57:52.225Z,99787.38
2023-12-20T14:00:23.468Z,99789.31
2023-12-20T14:02:52.161Z,99802.34
2023-12-20T14:05:20.693Z,99801.22
2023-12-20T14:07:49.674Z,99802.03
2023-12-20T14:10:19.281Z,99817.25
2023-12-20T14:12:47.405Z,99819.44
2023-12-20T14:15:15.770Z,99813.66
2023-12-20T14:17:44.659Z,99827.25
2023-12-20T14:20:14.208Z,99833.47
2023-12-20T14:22:45.923Z,99831.91
2023-12-20T14:25:24.266Z,99841.97
2023-12-20T14:27:52.564Z,99834.66
2023-12-20T14:30:20.290Z,99854.22
2023-12-20T14:32:49.642Z,99858.34
2023-12-20T14:35:17.515Z,99859.66
2023-12-20T14:37:46.152Z,99872.19
2023-12-20T14:40:17.810Z,99878.75
2023-12-20T14:42:47.558Z,99873.81
2023-12-20T14:45:17.543Z,99873.56
2023-12-20T14:47:46.046Z,99874.91
2023-12-20T14:50:19.935Z,99861.03
2023-12-20T14:52:48.242Z,99873.56
2023-12-20T14:55:17.005Z,99877.91
2023-12-20T14:57:46.294Z,99876.53
2023-12-20T15:00:17.851Z,99867.25
2023-12-20T15:02:46.000Z,99878.13
2023-12-20T15:05:13.788Z,99882.50
2023-12-20T15:07:41.785Z,99871.31
2023-12-20T15:10:10.502Z,99869.16
2023-12-20T15:12:38.371Z,99881.16
2023-12-20T15:15:10.765Z,99871.06
2023-12-20T15:17:39.150Z,99873.56
2023-12-20T15:20:08.796Z,99881.44
2023-12-20T15:22:37.310Z,99881.16
2023-12-20T15:25:07.131Z,99888.72
2023-12-20T15:27:36.584Z,99870.53
2023-12-20T15:30:05.042Z,99877.91
2023-12-20T15:32:37.667Z,99875.97
2023-12-20T15:35:07.262Z,99878.16
2023-12-20T15:37:35.131Z,99875.97
2023-12-20T15:40:05.527Z,99874.03
2023-12-20T15:42:37.252Z,99873.19
2023-12-20T15:45:05.916Z,99875.66
2023-12-20T15:47:36.434Z,99880.06
2023-12-20T15:50:05.696Z,99881.94
2023-12-20T15:52:33.937Z,99883.00
2023-12-20T15:55:01.877Z,99887.03
2023-12-20T15:57:42.066Z,99900.03
2023-12-20T16:00:17.809Z,99909.31
2023-12-20T16:02:47.248Z,99907.94
2023-12-20T16:05:15.401Z,99901.94
2023-12-20T16:07:44.635Z,99904.16
2023-12-20T16:10:12.812Z,99901.66
2023-12-20T16:12:41.847Z,99894.63
2023-12-20T16:15:10.576Z,99902.47
2023-12-20T16:17:38.415Z,99902.66
2023-12-20T16:20:10.281Z,99905.69
2023-12-20T16:22:38.278Z,99902.94
2023-12-20T16:25:07.190Z,99898.56
2023-12-20T16:27:35.493Z,99902.59
2023-12-20T16:30:03.651Z,99908.28
2023-12-20T16:32:31.456Z,99903.38
2023-12-20T16:34:59.907Z,99917.53
2023-12-20T16:37:29.070Z,99913.97
2023-12-20T16:39:56.768Z,99929.75
2023-12-20T16:42:24.841Z,99930.84
2023-12-20T16:44:52.552Z,99930.72
2023-12-20T16:47:20.565Z,99928.31
2023-12-20T16:49:48.421Z,99927.31
2023-12-20T16:52:16.659Z,99939.56
2023-12-20T16:54:45.738Z,99945.19
2023-12-20T16:57:15.530Z,99933.81
2023-12-20T16:59:45.014Z,99934.84
2023-12-20T17:02:12.886Z,99939.97
2023-12-20T17:04:41.130Z,99933.53
2023-12-20T17:07:08.983Z,99934.53
2023-12-20T17:09:37.074Z,99930.25
2023-12-20T17:12:08.764Z,99935.13
2023-12-20T17:14:36.841Z,99930.19
2023-12-20T17:17:05.268Z,99924.50
2023-12-20T17:19:33.914Z,99941.13
2023-12-20T17:22:01.913Z,99936.81
2023-12-20T17:24:29.739Z,99932.97
2023-12-20T17:26:57.812Z,99929.38
2023-12-20T17:29:26.956Z,99923.69
2023-12-20T17:31:55.119Z,99918.84
2023-12-20T17:34:23.050Z,99919.69
2023-12-20T17:36:51.937Z,99921.84
2023-12-20T17:39:19.628Z,99926.19
2023-12-20T17:41:47.766Z,99919.09
2023-12-20T17:44:16.752Z,99908.00
2023-12-20T17:46:46.355Z,99910.69
2023-12-20T17:49:14.123Z,99895.00
2023-12-20T17:51:41.911Z,99897.91
2023-12-20T17:54:09.914Z,99907.81
2023-12-20T17:56:37.890Z,99896.09
2023-12-20T17:59:06.056Z,99902.06
2023-12-20T18:01:33.867Z,99902.41
2023-12-20T18:04:03.669Z,99905.13
2023-12-20T18:06:31.602Z,99911.91
2023-12-20T18:08:59.734Z,99926.88
2023-12-20T18:11:27.507Z,99921.94
2023-12-20T18:13:56.010Z,99924.72
2023-12-20T18:16:23.797Z,99934.00
2023-12-20T18:18:51.632Z,99934.00
2023-12-20T18:21:21.286Z,99939.75
2023-12-20T18:23:52.978Z,99944.88
2023-12-20T18:26:23.177Z,99938.06
2023-12-20T18:28:51.484Z,99933.47
2023-12-20T18:31:19.519Z,99937.03
2023-12-20T18:33:47.763Z,99932.34
2023-12-20T18:36:15.858Z,99934.00
2023-12-20T18:38:45.410Z,99944.28
2023-12-20T18:41:15.393Z,99933.09
2023-12-20T18:43:43.695Z,99925.28
2023-12-20T18:46:11.696Z,99932.69
2023-12-20T18:48:41.413Z,99943.25
2023-12-20T18:51:09.625Z,99945.97
2023-12-20T18:53:37.625Z,99951.19
2023-12-20T18:56:07.427Z,99943.84
2023-12-20T18:58:35.688Z,99947.94
2023-12-20T19:01:03.492Z,99937.56
2023-12-20T19:03:32.096Z,99933.00
2023-12-20T19:06:01.888Z,99935.19
2023-12-20T19:08:29.928Z,99935.94
2023-12-20T19:10:57.618Z,99939.25
2023-12-20T19:13:32.902Z,99933.56
2023-12-20T19:16:01.641Z,99928.13
2023-12-20T19:18:29.783Z,99931.63
2023-12-20T19:20:57.548Z,99921.28
2023-12-20T19:23:25.655Z,99928.38
2023-12-20T19:25:53.440Z,99910.47
2023-12-20T19:28:21.750Z,99914.03
2023-12-20T19:30:51.008Z,99908.00
2023-12-20T19:33:19.194Z,99903.41
2023-12-20T19:35:46.895Z,99907.19
2023-12-20T19:38:14.695Z,99908.81
2023-12-20T19:40:42.884Z,99897.69
2023-12-20T19:43:10.656Z,99890.81
2023-12-20T19:45:38.740Z,99907.72
2023-12-20T19:48:08.730Z,99896.56
2023-12-20T19:50:36.512Z,99883.22
2023-12-20T19:53:05.684Z,99888.38
2023-12-20T19:55:34.630Z,99885.06
2023-12-20T19:58:02.756Z,99879.19
2023-12-20T20:00:39.033Z,99866.13
2023-12-20T20:03:15.124Z,99882.69
2023-12-20T20:05:43.610Z,99893.78
2023-12-20T20:08:11.432Z,99882.66
2023-12-20T20:10:39.239Z,99880.50
2023-12-20T20:13:07.550Z,99884.00
2023-12-20T20:15:35.387Z,99884.00
2023-12-20T20:18:03.169Z,99880.28
2023-12-20T20:20:32.306Z,99896.50
2023-12-20T20:23:00.415Z,99903.03
2023-12-20T20:25:29.154Z,99872.59
2023-12-20T20:27:57.716Z,99877.81
2023-12-20T20:30:25.497Z,99880.28
2023-12-20T20:32:53.499Z,99865.25
2023-12-20T20:35:21.798Z,99876.41
2023-12-20T20:37:51.454Z,99869.34
2023-12-20T20:40:20.433Z,99863.41
2023-12-20T20:42:48.292Z,99868.84
2023-12-20T20:45:17.093Z,99868.78
2023-12-20T20:47:45.246Z,99867.69
2023-12-20T20:50:13.706Z,99857.13
2023-12-20T20:52:41.604Z,99848.44
2023-12-20T20:55:11.035Z,99846.28
2023-12-20T20:57:39.269Z,99845.16
2023-12-20T21:00:08.880Z,99840.84
2023-12-20T21:02:36.636Z,99840.59
2023-12-20T21:05:05.101Z,99837.00
2023-12-20T21:07:34.140Z,99839.69
2023-12-20T21:10:02.824Z,99836.47
2023-12-20T21:12:32.020Z,99833.22
2023-12-20T21:14:59.722Z,99826.13
2023-12-20T21:17:28.026Z,99832.06
2023-12-20T21:19:55.922Z,99820.72
2023-12-20T21:22:24.830Z,99819.63
2023-12-20T21:24:52.545Z,99811.69
2023-12-20T21:27:20.654Z,99800.78
2023-12-20T21:29:49.912Z,99803.50
2023-12-20T21:32:17.889Z,99787.16
2023-12-20T21:34:45.620Z,99781.16
2023-12-20T21:37:13.326Z,99778.44
2023-12-20T21:39:41.088Z,99771.09
2023-12-20T21:42:09.836Z,99753.72
2023-12-20T21:44:38.379Z,99750.47
2023-12-20T21:47:07.795Z,99746.34
2023-12-20T21:49:35.897Z,99739.00
2023-12-20T21:52:03.638Z,99723.19
2023-12-20T21:54:31.474Z,99713.66
2023-12-20T21:56:59.759Z,99706.06
2023-12-20T21:59:27.659Z,99706.13
2023-12-20T22:01:55.432Z,99695.19
2023-12-20T22:04:24.596Z,99690.88
2023-12-20T22:06:52.945Z,99682.19
2023-12-20T22:09:20.725Z,99673.47
2023-12-20T22:11:48.731Z,99657.72
2023-12-20T22:14:16.479Z,99644.09
2023-12-20T22:16:44.602Z,99636.50
2023-12-20T22:19:12.451Z,99626.44
2023-12-20T22:21:41.755Z,99626.19
2023-12-20T22:24:09.590Z,99628.94
2023-12-20T22:26:37.321Z,99615.59
2023-12-20T22:29:05.112Z,99607.22
2023-12-20T22:31:33.354Z,99605.56
2023-12-20T22:34:01.219Z,99606.09
2023-12-20T22:36:29.171Z,99595.19
2023-12-20T22:38:58.797Z,99592.22
2023-12-20T22:41:26.488Z,99583.00
2023-12-20T22:43:54.645Z,99584.34
2023-12-20T22:46:23.436Z,99575.13
2023-12-20T22:48:51.144Z,99577.03
2023-12-20T22:51:19.233Z,99572.94
2023-12-20T22:53:46.937Z,99572.09
2023-12-20T22:56:16.622Z,99555.25
2023-12-20T22:58:44.294Z,99559.06
2023-12-20T23:01:12.087Z,99552.28
2023-12-20T23:03:41.339Z,99544.69
2023-12-20T23:06:09.050Z,99550.66
2023-12-20T23:08:37.161Z,99547.13
2023-12-20T23:11:05.198Z,99533.50
2023-12-20T23:13:34.282Z,99524.00
2023-12-20T23:16:02.470Z,99522.63
2023-12-20T23:18:30.234Z,99519.41
2023-12-20T23:20:57.930Z,99508.53
2023-12-20T23:23:26.592Z,99496.84
2023-12-20T23:25:54.323Z,99491.94
2023-12-20T23:28:22.449Z,99469.69
2023-12-20T23:30:51.476Z,99453.38
2023-12-20T23:33:19.270Z,99433.31
2023-12-20T23:35:47.396Z,99421.44
2023-12-20T23:38:15.165Z,99405.47
2023-12-20T23:40:42.936Z,99401.66
2023-12-20T23:43:11.125Z,99389.97
2023-12-20T23:45:38.831Z,99367.72
2023-12-20T23:48:08.048Z,99345.72
2023-12-20T23:50:36.162Z,99327.84
2023-12-20T23:53:04.355Z,99321.59
2023-12-20T23:55:32.063Z,99305.06
2023-12-20T23:58:00.321Z,99301.00
